createdAt,value
2018-04-10T00:00:39.750Z,100082.97
2018-04-10T00:03:06.517Z,100075.17
2018-04-10T00:05:33.452Z,100077.27
2018-04-10T00:08:00.498Z,100079.84
2018-04-10T00:10:27.552Z,100083.15
2018-04-10T00:12:54.451Z,100084.09
2018-04-10T00:15:22.073Z,100086.57
2018-04-10T00:17:48.754Z,100081.56
2018-04-10T00:20:16.274Z,100080.23
2018-04-10T00:22:43.228Z,100082.41
2018-04-10T00:25:10.079Z,100077.73
2018-04-10T00:27:36.842Z,100070.68
2018-04-10T00:30:03.699Z,100071.42
2018-04-10T00:32:30.618Z,100070.34
2018-04-10T00:34:57.405Z,100069.35
2018-04-10T00:37:25.026Z,100064.94
2018-04-10T00:39:51.852Z,100067.50
2018-04-10T00:42:18.631Z,100065.75
2018-04-10T00:44:45.397Z,100064.34
2018-04-10T00:47:12.216Z,100074.16
2018-04-10T00:49:38.916Z,100073.41
2018-04-10T00:52:05.917Z,100082.64
2018-04-10T00:54:32.888Z,100080.30
2018-04-10T00:56:59.671Z,100077.32
2018-04-10T00:59:26.527Z,100079.97
2018-04-10T01:01:53.516Z,100077.06
2018-04-10T01:04:20.564Z,100079.22
2018-04-10T01:06:47.506Z,100078.41
2018-04-10T01:09:14.489Z,100077.62
2018-04-10T01:11:41.311Z,100078.95
2018-04-10T01:14:08.279Z,100087.36
2018-04-10T01:16:35.192Z,100086.62
2018-04-10T01:19:02.169Z,100083.61
2018-04-10T01:21:28.979Z,100091.16
2018-04-10T01:23:55.903Z,100090.73
2018-04-10T01:26:23.454Z,100093.01
2018-04-10T01:28:50.206Z,100095.42
2018-04-10T01:31:17.845Z,100091.25
2018-04-10T01:33:44.711Z,100095.75
2018-04-10T01:36:11.574Z,100094.80
2018-04-10T01:38:39.306Z,100097.63
2018-04-10T01:41:06.078Z,100097.85
2018-04-10T01:43:32.946Z,100103.52
2018-04-10T01:46:00.562Z,100114.47
2018-04-10T01:48:27.509Z,100105.93
2018-04-10T01:50:54.378Z,100111.86
2018-04-10T01:53:21.251Z,100103.28
2018-04-10T01:55:48.781Z,100102.78
2018-04-10T01:58:15.658Z,100103.37
2018-04-10T02:00:42.428Z,100096.78
2018-04-10T02:03:09.218Z,100101.92
2018-04-10T02:05:36.073Z,100099.27
2018-04-10T02:08:03.007Z,100100.58
2018-04-10T02:10:29.864Z,100103.40
2018-04-10T02:12:56.740Z,100119.17
2018-04-10T02:15:23.565Z,100132.22
2018-04-10T02:17:50.439Z,100134.51
2018-04-10T02:20:17.962Z,100125.94
2018-04-10T02:22:44.660Z,100127.09
2018-04-10T02:25:12.226Z,100130.98
2018-04-10T02:27:39.840Z,100125.88
2018-04-10T02:30:06.720Z,100118.13
2018-04-10T02:32:33.579Z,100118.93
2018-04-10T02:35:01.193Z,100108.44
2018-04-10T02:37:28.058Z,100120.03
2018-04-10T02:39:54.866Z,100111.17
2018-04-10T02:42:21.681Z,100107.29
2018-04-10T02:44:49.317Z,100129.48
2018-04-10T02:47:16.087Z,100125.37
2018-04-10T02:49:43.080Z,100133.05
2018-04-10T02:52:09.785Z,100129.52
2018-04-10T02:54:36.609Z,100130.77
2018-04-10T02:57:03.502Z,100126.95
2018-04-10T02:59:31.010Z,100128.98
2018-04-10T03:01:57.874Z,100123.55
2018-04-10T03:04:24.719Z,100119.31
2018-04-10T03:06:51.392Z,100114.34
2018-04-10T03:09:18.210Z,100114.67
2018-04-10T03:11:45.156Z,100108.67
2018-04-10T03:14:12.003Z,100119.75
2018-04-10T03:16:38.959Z,100117.16
2018-04-10T03:19:05.839Z,100123.13
2018-04-10T03:21:32.650Z,100126.92
2018-04-10T03:23:59.597Z,100131.09
2018-04-10T03:26:26.367Z,100133.76
2018-04-10T03:28:53.203Z,100134.91
2018-04-10T03:31:20.040Z,100143.48
2018-04-10T03:33:46.782Z,100139.89
2018-04-10T03:36:13.755Z,100141.91
2018-04-10T03:38:40.508Z,100146.77
2018-04-10T03:41:07.432Z,100141.55
2018-04-10T03:43:34.278Z,100145.09
2018-04-10T03:46:01.067Z,100135.31
2018-04-10T03:48:28.696Z,100145.01
2018-04-10T03:50:55.534Z,100153.59
2018-04-10T03:53:22.462Z,100155.19
2018-04-10T03:55:49.283Z,100156.66
2018-04-10T03:58:16.289Z,100160.58
2018-04-10T04:00:43.342Z,100169.46
2018-04-10T04:03:10.185Z,100163.34
2018-04-10T04:05:37.033Z,100162.58
2018-04-10T04:08:03.805Z,100165.73
2018-04-10T04:10:30.760Z,100171.78
2018-04-10T04:12:57.682Z,100160.03
2018-04-10T04:15:24.739Z,100166.45
2018-04-10T04:17:51.436Z,100170.22
2018-04-10T04:20:37.881Z,100160.81
2018-04-10T04:23:04.667Z,100161.33
2018-04-10T04:25:32.286Z,100169.20
2018-04-10T04:27:59.244Z,100172.73
2018-04-10T04:30:26.088Z,100170.30
2018-04-10T04:32:52.871Z,100167.56
2018-04-10T04:35:20.402Z,100161.30
2018-04-10T04:37:47.181Z,100163.84
2018-04-10T04:40:14.011Z,100163.36
2018-04-10T04:42:40.835Z,100171.54
2018-04-10T04:45:07.590Z,100177.47
2018-04-10T04:47:34.363Z,100178.03
2018-04-10T04:50:01.179Z,100181.39
2018-04-10T04:52:28.028Z,100185.27
2018-04-10T04:54:54.987Z,100187.78
2018-04-10T04:57:21.671Z,100180.64
2018-04-10T04:59:49.405Z,100188.33
2018-04-10T05:02:16.238Z,100188.78
2018-04-10T05:04:43.212Z,100189.03
2018-04-10T05:07:10.046Z,100195.95
2018-04-10T05:09:36.981Z,100196.48
2018-04-10T05:12:03.841Z,100203.55
2018-04-10T05:14:30.705Z,100196.22
2018-04-10T05:16:57.832Z,100195.50
2018-04-10T05:19:24.675Z,100198.38
2018-04-10T05:21:51.454Z,100199.66
2018-04-10T05:24:18.280Z,100209.09
2018-04-10T05:26:45.270Z,100212.80
2018-04-10T05:29:12.815Z,100208.52
2018-04-10T05:31:39.679Z,100211.44
2018-04-10T05:34:06.705Z,100220.72
2018-04-10T05:36:33.558Z,100215.27
2018-04-10T05:39:00.331Z,100217.08
2018-04-10T05:41:27.953Z,100229.34
2018-04-10T05:43:54.847Z,100225.61
2018-04-10T05:46:22.480Z,100222.01
2018-04-10T05:48:49.280Z,100223.60
2018-04-10T05:51:16.272Z,100220.03
2018-04-10T05:53:43.110Z,100224.55
2018-04-10T05:56:10.072Z,100228.87
2018-04-10T05:58:36.915Z,100236.55
2018-04-10T06:01:03.866Z,100236.95
2018-04-10T06:03:30.712Z,100244.47
2018-04-10T06:05:57.390Z,100242.45
2018-04-10T06:08:24.313Z,100241.55
2018-04-10T06:10:51.162Z,100245.80
2018-04-10T06:13:18.024Z,100246.87
2018-04-10T06:15:44.853Z,100251.13
2018-04-10T06:18:11.819Z,100256.03
2018-04-10T06:20:38.756Z,100263.52
2018-04-10T06:23:05.495Z,100265.19
2018-04-10T06:25:32.368Z,100275.68
2018-04-10T06:27:59.399Z,100268.50
2018-04-10T06:30:26.252Z,100273.91
2018-04-10T06:32:53.199Z,100280.19
2018-04-10T06:35:20.061Z,100273.81
2018-04-10T06:37:47.101Z,100280.48
2018-04-10T06:40:13.886Z,100286.24
2018-04-10T06:42:41.442Z,100296.56
2018-04-10T06:45:08.469Z,100298.32
2018-04-10T06:47:35.271Z,100307.30
2018-04-10T06:50:02.880Z,100314.31
2018-04-10T06:52:29.748Z,100317.41
2018-04-10T06:54:56.581Z,100322.73
2018-04-10T06:57:23.569Z,100321.88
2018-04-10T06:59:51.188Z,100322.04
2018-04-10T07:02:18.158Z,100328.06
2018-04-10T07:04:45.025Z,100323.14
2018-04-10T07:07:12.606Z,100341.20
2018-04-10T07:09:40.226Z,100340.99
2018-04-10T07:12:07.099Z,100352.16
2018-04-10T07:14:33.940Z,100357.23
2018-04-10T07:17:00.871Z,100354.31
2018-04-10T07:19:27.750Z,100358.81
2018-04-10T07:21:55.298Z,100357.48
2018-04-10T07:24:22.233Z,100365.05
2018-04-10T07:26:49.695Z,100365.38
2018-04-10T07:29:16.535Z,100376.43
2018-04-10T07:31:43.488Z,100367.42
2018-04-10T07:34:10.228Z,100379.75
2018-04-10T07:36:37.022Z,100373.36
2018-04-10T07:39:05.678Z,100371.25
2018-04-10T07:41:32.527Z,100374.41
2018-04-10T07:43:59.574Z,100376.56
2018-04-10T07:46:26.313Z,100373.90
2018-04-10T07:48:53.161Z,100368.64
2018-04-10T07:51:20.053Z,100370.50
2018-04-10T07:53:46.960Z,100365.15
2018-04-10T07:56:13.767Z,100356.09
2018-04-10T07:58:40.767Z,100357.17
2018-04-10T08:01:08.143Z,100345.33
2018-04-10T08:03:35.074Z,100344.84
2018-04-10T08:06:02.028Z,100349.25
2018-04-10T08:08:28.903Z,100356.56
2018-04-10T08:10:55.749Z,100360.98
2018-04-10T08:13:22.637Z,100348.39
2018-04-10T08:15:50.904Z,100352.09
2018-04-10T08:18:18.622Z,100353.72
2018-04-10T08:20:45.472Z,100356.32
2018-04-10T08:23:12.303Z,100356.65
2018-04-10T08:25:39.180Z,100349.40
2018-04-10T08:28:06.048Z,100360.20
2018-04-10T08:30:33.672Z,100351.20
2018-04-10T08:33:00.673Z,100369.20
2018-04-10T08:35:28.315Z,100370.17
2018-04-10T08:37:55.191Z,100373.74
2018-04-10T08:40:22.911Z,100379.25
2018-04-10T08:42:49.597Z,100391.41
2018-04-10T08:45:17.203Z,100406.40
2018-04-10T08:47:43.891Z,100403.37
2018-04-10T08:50:10.954Z,100415.19
2018-04-10T08:52:38.583Z,100408.78
2018-04-10T08:55:05.431Z,100409.52
2018-04-10T08:57:32.222Z,100410.70
2018-04-10T08:59:59.945Z,100410.62
2018-04-10T09:02:26.803Z,100398.72
2018-04-10T09:04:53.747Z,100394.13
2018-04-10T09:07:20.645Z,100401.85
2018-04-10T09:09:47.543Z,100404.06
2018-04-10T09:12:14.393Z,100404.21
2018-04-10T09:14:41.139Z,100411.56
2018-04-10T09:17:07.901Z,100418.66
2018-04-10T09:19:34.823Z,100419.05
2018-04-10T09:22:01.686Z,100422.56
2018-04-10T09:24:28.655Z,100421.42
2018-04-10T09:26:55.575Z,100422.56
2018-04-10T09:29:22.418Z,100423.47
2018-04-10T09:31:49.201Z,100416.55
2018-04-10T09:34:16.027Z,100420.97
2018-04-10T09:36:42.871Z,100425.05
2018-04-10T09:39:09.718Z,100422.63
2018-04-10T09:41:36.490Z,100419.02
2018-04-10T09:44:03.372Z,100427.88
2018-04-10T09:46:30.263Z,100429.02
2018-04-10T09:48:57.102Z,100429.58
2018-04-10T09:51:23.979Z,100433.86
2018-04-10T09:53:50.803Z,100431.62
2018-04-10T09:56:17.651Z,100433.70
2018-04-10T09:58:44.519Z,100432.88
2018-04-10T10:01:11.553Z,100438.84
2018-04-10T10:03:38.320Z,100441.42
2018-04-10T10:06:05.077Z,100437.01
2018-04-10T10:08:31.818Z,100441.11
2018-04-10T10:10:58.484Z,100437.30
2018-04-10T10:13:26.108Z,100435.59
2018-04-10T10:15:52.955Z,100444.97
2018-04-10T10:18:19.835Z,100446.27
2018-04-10T10:20:47.354Z,100451.44
2018-04-10T10:23:14.017Z,100456.50
2018-04-10T10:25:40.845Z,100460.77
2018-04-10T10:28:07.698Z,100461.58
2018-04-10T10:30:34.486Z,100466.68
2018-04-10T10:33:02.226Z,100472.32
2018-04-10T10:35:29.163Z,100477.25
2018-04-10T10:37:56.016Z,100474.51
2018-04-10T10:40:22.759Z,100469.16
2018-04-10T10:42:49.529Z,100469.62
2018-04-10T10:45:17.015Z,100468.14
2018-04-10T10:47:44.458Z,100476.00
2018-04-10T10:50:11.288Z,100472.13
2018-04-10T10:52:38.011Z,100466.86
2018-04-10T10:55:04.803Z,100472.98
2018-04-10T10:57:31.635Z,100466.91
2018-04-10T10:59:58.569Z,100467.16
2018-04-10T11:02:25.350Z,100471.15
2018-04-10T11:04:52.987Z,100471.15
2018-04-10T11:07:19.831Z,100472.98
2018-04-10T11:09:46.803Z,100472.56
2018-04-10T11:12:13.634Z,100473.38
2018-04-10T11:14:40.479Z,100468.56
2018-04-10T11:17:07.283Z,100476.64
2018-04-10T11:19:34.066Z,100475.92
2018-04-10T11:22:00.910Z,100478.71
2018-04-10T11:24:27.682Z,100475.81
2018-04-10T11:26:54.435Z,100473.81
2018-04-10T11:29:21.279Z,100477.37
2018-04-10T11:31:48.108Z,100474.98
2018-04-10T11:34:14.954Z,100481.91
2018-04-10T11:36:41.748Z,100478.50
2018-04-10T11:39:09.611Z,100481.99
2018-04-10T11:41:36.411Z,100477.01
2018-04-10T11:44:03.288Z,100483.67
2018-04-10T11:46:30.420Z,100485.40
2018-04-10T11:48:57.163Z,100484.97
2018-04-10T11:51:24.111Z,100484.73
2018-04-10T11:53:50.907Z,100482.58
2018-04-10T11:56:18.535Z,100478.50
2018-04-10T11:58:45.383Z,100482.81
2018-04-10T12:01:12.142Z,100484.55
2018-04-10T12:03:38.971Z,100479.14
2018-04-10T12:06:05.755Z,100475.06
2018-04-10T12:08:33.382Z,100475.14
2018-04-10T12:11:00.326Z,100480.06
2018-04-10T12:13:27.993Z,100474.74
2018-04-10T12:15:55.363Z,100473.41
2018-04-10T12:18:22.284Z,100471.34
2018-04-10T12:20:49.158Z,100467.18
2018-04-10T12:23:16.219Z,100466.83
2018-04-10T12:25:43.165Z,100462.84
2018-04-10T12:28:10.828Z,100456.52
2018-04-10T12:30:37.694Z,100460.44
2018-04-10T12:33:04.637Z,100464.04
2018-04-10T12:35:31.395Z,100468.03
2018-04-10T12:37:58.396Z,100466.27
2018-04-10T12:40:25.086Z,100466.94
2018-04-10T12:42:51.850Z,100457.53
2018-04-10T12:45:18.762Z,100459.38
2018-04-10T12:47:45.542Z,100457.30
2018-04-10T12:50:12.283Z,100458.78
2018-04-10T12:52:39.214Z,100460.78
2018-04-10T12:55:06.913Z,100456.61
2018-04-10T12:57:34.534Z,100461.13
2018-04-10T13:00:01.492Z,100456.12
2018-04-10T13:02:28.393Z,100452.77
2018-04-10T13:04:55.141Z,100454.13
2018-04-10T13:07:21.896Z,100455.78
2018-04-10T13:09:48.885Z,100454.05
2018-04-10T13:12:15.839Z,100449.89
2018-04-10T13:14:42.571Z,100448.23
2018-04-10T13:17:10.118Z,100452.39
2018-04-10T13:19:36.993Z,100443.98
2018-04-10T13:22:03.801Z,100447.84
2018-04-10T13:24:30.517Z,100450.23
2018-04-10T13:26:58.248Z,100443.92
2018-04-10T13:29:25.095Z,100450.07
2018-04-10T13:31:52.046Z,100444.05
2018-04-10T13:34:19.103Z,100443.78
2018-04-10T13:36:45.951Z,100445.19
2018-04-10T13:39:12.941Z,100442.00
2018-04-10T13:41:40.531Z,100447.86
2018-04-10T13:44:07.413Z,100439.15
2018-04-10T13:46:34.190Z,100449.91
2018-04-10T13:49:01.217Z,100450.34
2018-04-10T13:51:28.166Z,100446.09
2018-04-10T13:53:55.019Z,100447.69
2018-04-10T13:56:21.779Z,100450.91
2018-04-10T13:58:48.826Z,100450.91
2018-04-10T14:01:15.766Z,100450.01
2018-04-10T14:03:42.669Z,100450.60
2018-04-10T14:06:09.559Z,100443.33
2018-04-10T14:08:36.622Z,100447.43
2018-04-10T14:11:03.469Z,100442.53
2018-04-10T14:13:30.405Z,100436.91
2018-04-10T14:15:57.219Z,100436.94
2018-04-10T14:18:24.349Z,100434.83
2018-04-10T14:20:51.934Z,100434.64
2018-04-10T14:23:18.760Z,100438.33
2018-04-10T14:25:46.401Z,100438.04
2018-04-10T14:28:13.435Z,100438.14
2018-04-10T14:30:40.411Z,100430.00
2018-04-10T14:33:07.175Z,100433.34
2018-04-10T14:35:33.951Z,100435.67
2018-04-10T14:38:00.665Z,100432.55
2018-04-10T14:40:28.397Z,100429.64
2018-04-10T14:42:55.243Z,100428.11
2018-04-10T14:45:22.099Z,100430.66
2018-04-10T14:47:48.868Z,100428.08
2018-04-10T14:50:15.583Z,100428.69
2018-04-10T14:52:42.485Z,100427.34
2018-04-10T14:55:09.966Z,100422.71
2018-04-10T14:57:36.814Z,100428.87
2018-04-10T15:00:03.551Z,100419.47
2018-04-10T15:02:30.386Z,100422.33
2018-04-10T15:04:57.985Z,100423.92
2018-04-10T15:07:24.959Z,100428.91
2018-04-10T15:09:51.815Z,100434.17
2018-04-10T15:12:18.662Z,100437.34
2018-04-10T15:14:45.600Z,100436.77
2018-04-10T15:17:12.461Z,100439.42
2018-04-10T15:19:39.297Z,100438.18
2018-04-10T15:22:06.256Z,100435.88
2018-04-10T15:24:33.201Z,100441.27
2018-04-10T15:26:59.973Z,100440.52
2018-04-10T15:29:26.994Z,100439.41
2018-04-10T15:31:53.682Z,100443.09
2018-04-10T15:34:21.236Z,100442.66
2018-04-10T15:36:48.905Z,100440.33
2018-04-10T15:39:15.923Z,100441.33
2018-04-10T15:41:42.752Z,100438.06
2018-04-10T15:44:09.438Z,100438.66
2018-04-10T15:46:36.369Z,100433.98
2018-04-10T15:49:03.212Z,100441.84
2018-04-10T15:51:29.995Z,100440.05
2018-04-10T15:53:57.616Z,100442.98
2018-04-10T15:56:24.577Z,100439.95
2018-04-10T15:58:51.354Z,100451.05
2018-04-10T16:01:18.171Z,100451.45
2018-04-10T16:03:45.127Z,100451.52
2018-04-10T16:06:11.963Z,100444.37
2018-04-10T16:08:38.956Z,100449.73
2018-04-10T16:11:05.784Z,100456.95
2018-04-10T16:13:32.814Z,100450.97
2018-04-10T16:15:59.595Z,100457.77
2018-04-10T16:18:26.451Z,100459.93
2018-04-10T16:20:54.263Z,100461.45
2018-04-10T16:23:21.054Z,100465.69
2018-04-10T16:25:48.102Z,100459.58
2018-04-10T16:28:14.874Z,100459.05
2018-04-10T16:30:42.496Z,100463.41
2018-04-10T16:33:09.266Z,100471.78
2018-04-10T16:35:36.105Z,100461.11
2018-04-10T16:38:03.040Z,100463.01
2018-04-10T16:40:29.995Z,100466.30
2018-04-10T16:42:56.782Z,100470.23
2018-04-10T16:45:24.419Z,100466.80
2018-04-10T16:47:51.455Z,100462.84
2018-04-10T16:50:18.131Z,100459.62
2018-04-10T16:52:45.170Z,100464.45
2018-04-10T16:55:12.109Z,100476.98
2018-04-10T16:57:38.963Z,100476.45
2018-04-10T17:00:05.734Z,100482.61
2018-04-10T17:02:33.368Z,100484.89
2018-04-10T17:05:00.365Z,100479.72
2018-04-10T17:07:28.078Z,100480.03
2018-04-10T17:09:55.039Z,100482.15
2018-04-10T17:12:21.990Z,100479.14
2018-04-10T17:14:48.944Z,100483.75
2018-04-10T17:17:15.784Z,100481.22
2018-04-10T17:19:42.634Z,100478.98
2018-04-10T17:22:09.480Z,100477.91
2018-04-10T17:24:36.418Z,100474.64
2018-04-10T17:27:03.363Z,100480.32
2018-04-10T17:29:30.296Z,100470.64
2018-04-10T17:31:57.072Z,100478.91
2018-04-10T17:34:23.758Z,100477.91
2018-04-10T17:36:51.485Z,100484.30
2018-04-10T17:39:18.469Z,100479.13
2018-04-10T17:41:45.948Z,100476.89
2018-04-10T17:44:13.769Z,100476.12
2018-04-10T17:46:40.688Z,100473.28
2018-04-10T17:49:07.588Z,100480.73
2018-04-10T17:51:34.475Z,100480.39
2018-04-10T17:54:01.328Z,100477.80
2018-04-10T17:56:28.321Z,100479.65
2018-04-10T17:58:55.267Z,100475.30
2018-04-10T18:01:22.217Z,100479.05
2018-04-10T18:03:49.000Z,100479.39
2018-04-10T18:06:16.602Z,100479.61
2018-04-10T18:08:43.485Z,100482.13
2018-04-10T18:11:10.272Z,100489.97
2018-04-10T18:13:37.982Z,100490.70
2018-04-10T18:16:04.788Z,100491.86
2018-04-10T18:18:32.438Z,100497.70
2018-04-10T18:21:00.092Z,100496.88
2018-04-10T18:23:27.345Z,100498.42
2018-04-10T18:25:54.386Z,100504.94
2018-04-10T18:28:21.155Z,100492.60
2018-04-10T18:30:47.968Z,100502.16
2018-04-10T18:33:14.768Z,100499.09
2018-04-10T18:35:42.401Z,100502.03
2018-04-10T18:38:09.282Z,100505.43
2018-04-10T18:40:36.926Z,100505.86
2018-04-10T18:43:03.836Z,100509.50
2018-04-10T18:45:30.721Z,100506.62
2018-04-10T18:47:57.666Z,100523.51
2018-04-10T18:50:24.518Z,100525.66
2018-04-10T18:52:51.457Z,100518.91
2018-04-10T18:55:18.305Z,100518.90
2018-04-10T18:57:45.255Z,100523.81
2018-04-10T19:00:12.366Z,100526.90
2018-04-10T19:02:39.205Z,100528.05
2018-04-10T19:05:06.108Z,100528.08
2018-04-10T19:07:32.856Z,100531.50
2018-04-10T19:09:59.908Z,100533.92
2018-04-10T19:12:26.806Z,100534.57
2018-04-10T19:14:53.709Z,100534.39
2018-04-10T19:17:20.477Z,100526.30
2018-04-10T19:19:47.407Z,100519.32
2018-04-10T19:22:14.108Z,100523.50
2018-04-10T19:24:40.915Z,100515.31
2018-04-10T19:27:08.392Z,100507.38
2018-04-10T19:29:36.024Z,100508.03
2018-04-10T19:32:02.977Z,100503.44
2018-04-10T19:34:30.022Z,100513.69
2018-04-10T19:36:56.907Z,100509.97
2018-04-10T19:39:24.404Z,100511.69
2018-04-10T19:41:51.215Z,100513.62
2018-04-10T19:44:18.690Z,100515.61
2018-04-10T19:46:46.127Z,100510.28
2018-04-10T19:49:12.960Z,100515.28
2018-04-10T19:51:39.699Z,100513.09
2018-04-10T19:54:06.515Z,100509.27
2018-04-10T19:56:33.341Z,100516.70
2018-04-10T19:59:01.076Z,100518.77
2018-04-10T20:01:28.000Z,100518.59
2018-04-10T20:03:54.879Z,100523.72
2018-04-10T20:06:22.549Z,100529.81
2018-04-10T20:08:50.369Z,100530.72
2018-04-10T20:11:17.153Z,100526.39
2018-04-10T20:13:44.309Z,100517.55
2018-04-10T20:16:11.434Z,100522.55
2018-04-10T20:18:38.861Z,100520.80
2018-04-10T20:21:05.828Z,100519.63
2018-04-10T20:23:32.831Z,100508.56
2018-04-10T20:25:59.738Z,100503.13
2018-04-10T20:28:27.235Z,100502.11
2018-04-10T20:30:54.092Z,100494.11
2018-04-10T20:33:21.264Z,100500.55
2018-04-10T20:35:48.183Z,100512.55
2018-04-10T20:38:15.156Z,100507.27
2018-04-10T20:40:42.185Z,100486.09
2018-04-10T20:43:08.954Z,100472.28
2018-04-10T20:45:35.903Z,100472.58
2018-04-10T20:48:02.899Z,100470.94
2018-04-10T20:50:29.743Z,100467.33
2018-04-10T20:52:56.503Z,100453.41
2018-04-10T20:55:23.415Z,100466.84
2018-04-10T20:57:50.984Z,100477.16
2018-04-10T21:00:18.483Z,100504.50
2018-04-10T21:02:45.236Z,100520.49
2018-04-10T21:05:12.137Z,100523.16
2018-04-10T21:07:39.865Z,100541.31
2018-04-10T21:10:06.824Z,100561.29
2018-04-10T21:12:33.669Z,100570.97
2018-04-10T21:15:00.731Z,100566.97
2018-04-10T21:17:27.738Z,100568.38
2018-04-10T21:19:54.619Z,100582.45
2018-04-10T21:22:21.571Z,100564.62
2018-04-10T21:24:48.526Z,100518.81
2018-04-10T21:27:15.368Z,100520.25
2018-04-10T21:29:42.313Z,100520.93
2018-04-10T21:32:09.114Z,100534.53
2018-04-10T21:34:36.125Z,100527.44
2018-04-10T21:37:03.057Z,100541.94
2018-04-10T21:39:29.863Z,100558.20
2018-04-10T21:41:57.310Z,100557.70
2018-04-10T21:44:24.772Z,100536.77
